createdAt,value
2018-12-25T00:00:17.377Z,103109.15
2018-12-25T00:05:12.875Z,103098.70
2018-12-25T00:10:08.826Z,103103.55
2018-12-25T00:15:04.308Z,103099.19
2018-12-25T00:19:59.883Z,103104.02
2018-12-25T00:24:55.339Z,103100.55
2018-12-25T00:29:50.818Z,103097.94
2018-12-25T00:34:46.295Z,103106.66
2018-12-25T00:39:41.940Z,103102.70
2018-12-25T00:44:38.583Z,103112.74
2018-12-25T00:49:35.127Z,103086.97
2018-12-25T00:54:30.763Z,103084.77
2018-12-25T00:59:26.785Z,103070.30
2018-12-25T01:04:22.520Z,103065.00
2018-12-25T01:09:18.296Z,103064.53
2018-12-25T01:14:14.054Z,103065.34
2018-12-25T01:19:09.523Z,103070.58
2018-12-25T01:24:05.018Z,103072.77
2018-12-25T01:29:00.577Z,103084.98
2018-12-25T01:33:56.195Z,103084.63
2018-12-25T01:38:51.684Z,103082.92
2018-12-25T01:43:47.265Z,103091.72
2018-12-25T01:48:42.755Z,103097.42
2018-12-25T01:53:38.418Z,103097.44
2018-12-25T01:58:34.137Z,103106.20
2018-12-25T02:03:29.611Z,103109.73
2018-12-25T02:08:25.263Z,103118.45
2018-12-25T02:13:20.748Z,103114.13
2018-12-25T02:18:16.429Z,103112.81
2018-12-25T02:23:12.123Z,103116.75
2018-12-25T02:28:07.737Z,103111.50
2018-12-25T02:33:03.237Z,103110.61
2018-12-25T02:37:58.917Z,103115.86
2018-12-25T02:42:54.554Z,103119.81
2018-12-25T02:47:50.196Z,103118.53
2018-12-25T02:52:45.738Z,103114.20
2018-12-25T02:57:41.221Z,103112.48
2018-12-25T03:02:36.932Z,103104.64
2018-12-25T03:07:32.402Z,103108.14
2018-12-25T03:12:28.010Z,103102.91
2018-12-25T03:17:23.624Z,103105.55
2018-12-25T03:22:19.207Z,103102.05
2018-12-25T03:27:15.065Z,103092.47
2018-12-25T03:32:12.245Z,103087.23
2018-12-25T03:37:07.945Z,103083.72
2018-12-25T03:42:03.483Z,103088.95
2018-12-25T03:46:59.043Z,103083.29
2018-12-25T03:51:54.562Z,103072.34
2018-12-25T03:56:50.043Z,103071.50
2018-12-25T04:01:45.601Z,103074.97
2018-12-25T04:06:41.063Z,103061.02
2018-12-25T04:11:36.537Z,103068.47
2018-12-25T04:16:32.073Z,103069.33
2018-12-25T04:21:27.552Z,103068.03
2018-12-25T04:26:23.099Z,103066.73
2018-12-25T04:31:18.843Z,103060.20
2018-12-25T04:36:14.393Z,103062.81
2018-12-25T04:41:09.990Z,103059.34
2018-12-25T04:46:05.704Z,103051.02
2018-12-25T04:51:01.175Z,103046.25
2018-12-25T04:55:56.667Z,103050.19
2018-12-25T05:00:52.274Z,103050.19
2018-12-25T05:05:47.829Z,103056.28
2018-12-25T05:10:43.675Z,103060.26
2018-12-25T05:15:39.248Z,103054.58
2018-12-25T05:20:38.027Z,103058.11
2018-12-25T05:25:32.051Z,103054.66
2018-12-25T05:30:27.664Z,103053.80
2018-12-25T05:35:23.248Z,103052.49
2018-12-25T05:40:18.951Z,103054.25
2018-12-25T05:45:14.506Z,103059.55
2018-12-25T05:50:10.016Z,103050.36
2018-12-25T05:55:05.653Z,103057.76
2018-12-25T06:00:01.149Z,103059.96
2018-12-25T06:04:56.683Z,103070.46
2018-12-25T06:09:52.321Z,103061.72
2018-12-25T06:14:47.764Z,103073.14
2018-12-25T06:19:43.248Z,103077.98
2018-12-25T06:24:38.740Z,103073.58
2018-12-25T06:29:34.189Z,103084.08
2018-12-25T06:34:29.652Z,103084.13
2018-12-25T06:39:25.164Z,103082.83
2018-12-25T06:44:20.655Z,103083.69
2018-12-25T06:49:16.148Z,103067.53
2018-12-25T06:54:11.613Z,103070.58
2018-12-25T06:59:07.076Z,103057.92
2018-12-25T07:04:02.548Z,103057.92
2018-12-25T07:08:58.033Z,103057.47
2018-12-25T07:13:53.511Z,103060.08
2018-12-25T07:18:51.929Z,103067.95
2018-12-25T07:23:47.410Z,103065.33
2018-12-25T07:28:42.852Z,103064.48
2018-12-25T07:33:38.317Z,103064.48
2018-12-25T07:38:33.818Z,103063.59
2018-12-25T07:43:29.330Z,103064.02
2018-12-25T07:48:24.808Z,103054.41
2018-12-25T07:53:20.334Z,103048.27
2018-12-25T07:58:15.819Z,103044.34
2018-12-25T08:03:11.292Z,103043.49
2018-12-25T08:08:06.834Z,103053.52
2018-12-25T08:13:02.401Z,103047.85
2018-12-25T08:17:57.873Z,103048.73
2018-12-25T08:22:53.376Z,103053.53
2018-12-25T08:27:48.850Z,103049.64
2018-12-25T08:32:44.335Z,103052.70
2018-12-25T08:37:39.847Z,103051.41
2018-12-25T08:42:35.616Z,103054.50
2018-12-25T08:47:31.111Z,103050.14
2018-12-25T08:52:26.664Z,103054.52
2018-12-25T08:57:22.176Z,103055.41
2018-12-25T09:02:17.800Z,103059.34
2018-12-25T09:07:13.390Z,103074.24
2018-12-25T09:12:08.860Z,103069.85
2018-12-25T09:17:04.408Z,103064.13
2018-12-25T09:21:59.877Z,103059.68
2018-12-25T09:26:55.373Z,103060.93
2018-12-25T09:31:51.043Z,103066.56
2018-12-25T09:36:46.546Z,103073.05
2018-12-25T09:41:42.054Z,103077.41
2018-12-25T09:46:37.578Z,103080.89
2018-12-25T09:51:32.993Z,103089.16
2018-12-25T09:56:28.487Z,103077.72
2018-12-25T10:01:23.962Z,103084.23
2018-12-25T10:06:19.498Z,103083.65
2018-12-25T10:11:15.058Z,103078.23
2018-12-25T10:16:10.527Z,103071.02
2018-12-25T10:21:06.325Z,103069.42
2018-12-25T10:26:01.844Z,103066.08
2018-12-25T10:30:57.530Z,103068.95
2018-12-25T10:35:53.052Z,103051.76
2018-12-25T10:40:48.528Z,103045.61
2018-12-25T10:45:44.014Z,103053.16
2018-12-25T10:50:39.484Z,103042.54
2018-12-25T10:55:34.996Z,103043.36
2018-12-25T11:00:39.132Z,103047.22
2018-12-25T11:05:34.720Z,103045.38
2018-12-25T11:10:30.233Z,103056.33
2018-12-25T11:15:25.763Z,103054.91
2018-12-25T11:20:21.258Z,103057.03
2018-12-25T11:25:16.780Z,103058.28
2018-12-25T11:30:12.287Z,103049.41
2018-12-25T11:35:08.192Z,103051.22
2018-12-25T11:40:03.878Z,103052.14
2018-12-25T11:44:59.354Z,103044.91
2018-12-25T11:49:54.978Z,103043.25
2018-12-25T11:54:50.470Z,103039.38
2018-12-25T11:59:46.005Z,103035.46
2018-12-25T12:04:41.714Z,103036.83
2018-12-25T12:09:37.635Z,103028.50
2018-12-25T12:14:33.124Z,103022.76
2018-12-25T12:19:28.635Z,103015.28
2018-12-25T12:24:24.152Z,103024.52
2018-12-25T12:29:19.630Z,103021.44
2018-12-25T12:34:15.187Z,103023.17
2018-12-25T12:39:10.724Z,103020.53
2018-12-25T12:44:06.191Z,103027.56
2018-12-25T12:49:01.671Z,103022.84
2018-12-25T12:53:57.107Z,103029.17
2018-12-25T12:58:52.637Z,103034.96
2018-12-25T13:03:48.103Z,103034.56
2018-12-25T13:08:43.593Z,103036.26
2018-12-25T13:13:39.097Z,103027.02
2018-12-25T13:18:34.579Z,103039.39
2018-12-25T13:23:30.173Z,103037.30
2018-12-25T13:28:25.878Z,103045.31
2018-12-25T13:33:21.446Z,103037.20
2018-12-25T13:38:17.016Z,103038.28
2018-12-25T13:43:14.274Z,103039.62
2018-12-25T13:48:09.767Z,103039.09
2018-12-25T13:53:05.312Z,103034.62
2018-12-25T13:58:00.797Z,103025.45
2018-12-25T14:02:56.301Z,103036.43
2018-12-25T14:07:51.774Z,103029.38
2018-12-25T14:12:47.257Z,103027.70
2018-12-25T14:17:42.929Z,103036.66
2018-12-25T14:22:38.391Z,103024.50
2018-12-25T14:27:33.860Z,103022.95
2018-12-25T14:32:29.330Z,103029.22
2018-12-25T14:37:24.840Z,103033.71
2018-12-25T14:42:20.369Z,103034.20
2018-12-25T14:47:15.874Z,103039.46
2018-12-25T14:52:11.332Z,103039.05
2018-12-25T14:57:06.799Z,103036.02
2018-12-25T15:02:02.289Z,103037.79
2018-12-25T15:06:57.773Z,103037.36
2018-12-25T15:11:53.227Z,103039.15
2018-12-25T15:16:48.713Z,103032.14
2018-12-25T15:21:44.213Z,103031.28
2018-12-25T15:26:39.682Z,103033.05
2018-12-25T15:31:35.186Z,103029.54
2018-12-25T15:36:30.688Z,103028.23
2018-12-25T15:41:26.169Z,103036.13
2018-12-25T15:46:21.694Z,103034.38
2018-12-25T15:51:17.166Z,103036.14
2018-12-25T15:56:12.670Z,103037.48
2018-12-25T16:01:08.144Z,103043.59
2018-12-25T16:06:03.590Z,103045.75
2018-12-25T16:10:59.039Z,103043.59
2018-12-25T16:15:54.508Z,103041.38
2018-12-25T16:20:50.007Z,103038.74
2018-12-25T16:25:45.514Z,103040.46
2018-12-25T16:30:41.004Z,103040.40
2018-12-25T16:35:36.490Z,103039.05
2018-12-25T16:40:31.955Z,103035.05
2018-12-25T16:45:27.472Z,103036.74
2018-12-25T16:50:22.975Z,103043.28
2018-12-25T16:55:18.475Z,103056.81
2018-12-25T17:00:13.931Z,103048.55
2018-12-25T17:05:09.458Z,103054.23
2018-12-25T17:10:06.346Z,103060.84
2018-12-25T17:15:01.836Z,103050.84
2018-12-25T17:19:57.322Z,103044.73
2018-12-25T17:24:52.830Z,103045.61
2018-12-25T17:29:48.375Z,103040.73
2018-12-25T17:34:43.882Z,103052.07
2018-12-25T17:39:39.430Z,103059.03
2018-12-25T17:44:34.905Z,103057.31
2018-12-25T17:49:30.445Z,103058.23
2018-12-25T17:54:25.984Z,103060.03
2018-12-25T17:59:21.455Z,103053.91
2018-12-25T18:04:16.927Z,103057.44
2018-12-25T18:09:12.395Z,103057.44
2018-12-25T18:14:07.859Z,103067.94
2018-12-25T18:19:03.381Z,103062.70
2018-12-25T18:23:58.818Z,103058.35
2018-12-25T18:28:54.337Z,103059.66
2018-12-25T18:33:49.795Z,103054.41
2018-12-25T18:38:45.252Z,103049.55
2018-12-25T18:43:40.740Z,103051.62
2018-12-25T18:48:36.295Z,103047.61
2018-12-25T18:53:31.760Z,103043.13
2018-12-25T18:58:27.267Z,103046.95
2018-12-25T19:03:22.725Z,103040.27
2018-12-25T19:08:18.209Z,103034.02
2018-12-25T19:13:13.681Z,103041.31
2018-12-25T19:18:12.799Z,103031.97
2018-12-25T19:23:08.263Z,103033.13
2018-12-25T19:28:03.745Z,103026.45
2018-12-25T19:32:59.207Z,103040.27
2018-12-25T19:37:54.713Z,103039.66
2018-12-25T19:42:50.232Z,103046.06
2018-12-25T19:47:45.694Z,103034.65
2018-12-25T19:52:41.178Z,103045.05
2018-12-25T19:57:36.609Z,103035.45
2018-12-25T20:02:32.419Z,103017.08
2018-12-25T20:08:30.412Z,103023.56
2018-12-25T20:14:21.773Z,103023.02
2018-12-25T20:20:05.955Z,103017.70
2018-12-25T20:25:39.236Z,103016.25
2018-12-25T20:32:01.916Z,103014.86
2018-12-25T20:38:03.943Z,103020.52
2018-12-25T20:44:14.891Z,103017.41
2018-12-25T20:50:04.224Z,103019.80
2018-12-25T20:56:18.671Z,103009.56
2018-12-25T21:02:00.047Z,103018.93
2018-12-25T21:07:49.407Z,103016.57
2018-12-25T21:13:58.628Z,103024.28
2018-12-25T21:19:50.259Z,103002.89
2018-12-25T21:25:39.331Z,103017.14
2018-12-25T21:30:34.816Z,103009.19
2018-12-25T21:35:30.401Z,103006.06
2018-12-25T21:40:25.853Z,103010.31
2018-12-25T21:45:21.339Z,103015.03
2018-12-25T21:50:16.822Z,103014.45
2018-12-25T21:55:18.631Z,103011.73
2018-12-25T22:00:13.780Z,103002.92
2018-12-25T22:05:09.252Z,103009.33
2018-12-25T22:10:05.174Z,102999.23
2018-12-25T22:15:00.649Z,103003.53
2018-12-25T22:19:56.105Z,102996.48
2018-12-25T22:24:51.595Z,102993.86
2018-12-25T22:29:47.074Z,102997.27
2018-12-25T22:34:42.555Z,102998.06
2018-12-25T22:39:38.027Z,102992.37
2018-12-25T22:44:33.500Z,102992.32
2018-12-25T22:49:28.992Z,102984.42
2018-12-25T22:54:24.467Z,102972.16
2018-12-25T22:59:20.188Z,102970.45
2018-12-25T23:04:15.699Z,102973.11
2018-12-25T23:09:11.207Z,102962.36
2018-12-25T23:14:06.693Z,102957.20
2018-12-25T23:19:02.216Z,102953.33
2018-12-25T23:23:57.709Z,102962.86
2018-12-25T23:28:53.355Z,102961.17
2018-12-25T23:33:48.879Z,102971.15
2018-12-25T23:38:44.457Z,102969.26
2018-12-25T23:43:39.946Z,102961.72
2018-12-25T23:48:35.409Z,102962.55
2018-12-25T23:53:31.199Z,102960.77
2018-12-25T23:58:26.817Z,102964.50
